createdAt,value
2022-10-01T00:06:31.351Z,98404.95
2022-10-01T00:16:38.987Z,98402.92
2022-10-01T00:26:47.932Z,98399.05
2022-10-01T00:36:55.223Z,98389.78
2022-10-01T00:47:04.912Z,98388.88
2022-10-01T00:57:15.432Z,98390.23
2022-10-01T01:07:23.613Z,98387.25
2022-10-01T01:17:40.600Z,98379.79
2022-10-01T01:27:51.659Z,98368.08
2022-10-01T01:38:02.407Z,98377.41
2022-10-01T01:48:13.145Z,98375.73
2022-10-01T01:58:21.432Z,98364.84
2022-10-01T02:08:37.121Z,98366.42
2022-10-01T02:18:47.884Z,98374.73
2022-10-01T02:28:56.610Z,98376.25
2022-10-01T02:39:06.823Z,98381.54
2022-10-01T02:49:15.413Z,98378.27
2022-10-01T02:59:21.965Z,98386.71
2022-10-01T03:09:29.048Z,98390.56
2022-10-01T03:19:36.176Z,98382.57
2022-10-01T03:29:43.597Z,98375.48
2022-10-01T03:39:50.762Z,98367.63
2022-10-01T03:49:57.779Z,98360.13
2022-10-01T04:00:02.799Z,98351.73
2022-10-01T04:10:11.534Z,98350.28
2022-10-01T04:20:18.740Z,98339.13
2022-10-01T04:30:27.040Z,98335.86
2022-10-01T04:40:36.019Z,98340.42
2022-10-01T04:50:43.502Z,98342.00
2022-10-01T05:00:51.177Z,98348.02
2022-10-01T05:10:59.962Z,98342.85
2022-10-01T05:21:05.482Z,98347.09
2022-10-01T05:31:13.632Z,98345.09
2022-10-01T05:41:21.083Z,98338.22
2022-10-01T05:51:29.707Z,98329.59
2022-10-01T06:01:37.198Z,98322.45
2022-10-01T06:11:43.577Z,98320.77
2022-10-01T06:21:51.041Z,98323.90
2022-10-01T06:31:58.731Z,98315.80
2022-10-01T06:42:05.896Z,98308.89
2022-10-01T06:52:28.703Z,98313.99
2022-10-01T07:02:36.538Z,98312.27
2022-10-01T07:12:44.207Z,98314.10
2022-10-01T07:22:57.542Z,98307.31
2022-10-01T07:33:05.022Z,98308.47
2022-10-01T07:43:14.821Z,98308.82
2022-10-01T07:53:25.065Z,98305.41
2022-10-01T08:03:29.580Z,98300.19
2022-10-01T08:13:37.097Z,98302.46
2022-10-01T08:23:44.496Z,98291.72
2022-10-01T08:33:52.039Z,98276.39
2022-10-01T08:44:01.466Z,98268.09
2022-10-01T08:54:08.920Z,98268.31
2022-10-01T09:04:16.411Z,98259.35
2022-10-01T09:14:28.220Z,98244.08
2022-10-01T09:24:37.831Z,98238.52
2022-10-01T09:34:46.599Z,98229.66
2022-10-01T09:44:54.144Z,98214.30
2022-10-01T09:55:05.352Z,98206.84
2022-10-01T10:05:18.231Z,98205.92
2022-10-01T10:15:25.771Z,98195.01
2022-10-01T10:25:32.893Z,98177.11
2022-10-01T10:35:40.438Z,98159.05
2022-10-01T10:45:48.575Z,98136.19
2022-10-01T10:55:56.012Z,98111.89
2022-10-01T11:06:12.787Z,98086.77
2022-10-01T11:16:33.805Z,98071.65
2022-10-01T11:26:46.125Z,98056.86
2022-10-01T11:36:55.345Z,98033.82
2022-10-01T11:47:03.438Z,98019.30
2022-10-01T11:57:33.218Z,98008.15
2022-10-01T12:07:43.996Z,97992.66
2022-10-01T12:17:56.855Z,97978.45
2022-10-01T12:28:02.342Z,97966.64
2022-10-01T12:38:17.187Z,97955.63
2022-10-01T12:48:21.932Z,97949.69
2022-10-01T12:58:40.515Z,97953.36
2022-10-01T13:08:55.595Z,97944.59
2022-10-01T13:19:03.487Z,97944.13
2022-10-01T13:29:17.311Z,97938.03
2022-10-01T13:39:23.130Z,97925.25
2022-10-01T13:49:32.873Z,97912.86
2022-10-01T13:59:42.185Z,97906.90
2022-10-01T14:09:53.710Z,97894.91
2022-10-01T14:20:02.085Z,97884.16
2022-10-01T14:30:08.885Z,97870.97
2022-10-01T14:40:16.102Z,97855.96
2022-10-01T14:50:24.046Z,97843.20
2022-10-01T15:00:32.958Z,97829.03
2022-10-01T15:10:46.723Z,97813.17
2022-10-01T15:20:54.722Z,97810.02
2022-10-01T15:30:58.978Z,97813.77
2022-10-01T15:41:29.819Z,97802.34
2022-10-01T15:51:33.767Z,97797.13
2022-10-01T16:01:41.689Z,97796.45
2022-10-01T16:11:53.534Z,97793.81
2022-10-01T16:22:24.465Z,97792.08
2022-10-01T16:32:31.852Z,97788.46
2022-10-01T16:42:40.276Z,97779.98
2022-10-01T16:52:47.716Z,97767.89
2022-10-01T17:02:56.117Z,97763.01
2022-10-01T17:13:04.481Z,97763.38
2022-10-01T17:23:14.284Z,97752.96
2022-10-01T17:33:22.755Z,97750.48
2022-10-01T17:43:30.112Z,97742.07
2022-10-01T17:53:42.543Z,97745.33
2022-10-01T18:03:53.285Z,97825.65
2022-10-01T18:14:01.271Z,97824.77
2022-10-01T18:24:08.616Z,97835.65
2022-10-01T18:34:13.883Z,97835.01
2022-10-01T18:44:22.090Z,97847.94
2022-10-01T18:54:44.687Z,97849.77
2022-10-01T19:05:05.186Z,97852.11
2022-10-01T19:15:17.739Z,97853.67
2022-10-01T19:25:32.517Z,97853.79
2022-10-01T19:35:37.241Z,97851.31
2022-10-01T19:45:46.261Z,97857.10
2022-10-01T19:55:55.923Z,97857.12
2022-10-01T20:06:03.713Z,97856.65
2022-10-01T20:16:10.081Z,97859.85
2022-10-01T20:26:17.402Z,97866.33
2022-10-01T20:36:27.875Z,97870.54
2022-10-01T20:46:38.448Z,97878.55
2022-10-01T20:56:57.937Z,97886.16
2022-10-01T21:07:11.071Z,97885.77
2022-10-01T21:17:32.522Z,97886.94
2022-10-01T21:27:47.831Z,97897.63
2022-10-01T21:38:06.612Z,97900.98
2022-10-01T21:48:18.418Z,97901.30
2022-10-01T21:58:34.594Z,97898.89
2022-10-01T22:08:46.076Z,97905.96
2022-10-01T22:18:53.958Z,97907.27
2022-10-01T22:29:03.221Z,97913.04
2022-10-01T22:39:08.569Z,97918.48
2022-10-01T22:49:17.325Z,97925.53
2022-10-01T22:59:22.445Z,97928.31
2022-10-01T23:09:32.001Z,97940.81
2022-10-01T23:19:39.101Z,97938.10
2022-10-01T23:29:50.554Z,97945.54
2022-10-01T23:40:04.141Z,97952.89
2022-10-01T23:50:17.058Z,97961.63
